Time;durP1;ratioP1;P1;durP2;ratioP2;P2;SDS_P1;SDS_P2;PMS_P1;PMS_P2;Temp;Humidity;BMP_temperature;BMP_pressure;BME280_temperature;BME280_humidity;BME280_pressure;Samples;Min_cycle;Max_cycle;Signal;HPM_P1;HPM_P2
2023/08/05 00:00:28;;;;;;;0.93;0.63;;;;;;;;;;5057851;28;20078;-77
2023/08/05 00:02:54;;;;;;;1.02;0.90;;;;;;;;;;5060795;28;20154;-78
2023/08/05 00:05:20;;;;;;;0.60;0.60;;;;;;;;;;5070760;28;20347;-78
2023/08/05 00:07:46;;;;;;;1.30;1.10;;;;;;;;;;5071980;28;20032;-78
2023/08/05 00:10:12;;;;;;;1.45;0.80;;;;;;;;;;5083619;28;20031;-77
2023/08/05 00:12:38;;;;;;;1.58;0.80;;;;;;;;;;5068917;28;20075;-77
2023/08/05 00:15:04;;;;;;;1.40;0.80;;;;;;;;;;5057316;28;20070;-77
2023/08/05 00:17:30;;;;;;;1.50;0.85;;;;;;;;;;5057610;28;20033;-78
2023/08/05 00:19:56;;;;;;;0.65;0.65;;;;;;;;;;5062988;28;20044;-77
2023/08/05 00:22:22;;;;;;;1.10;0.75;;;;;;;;;;5056808;28;20080;-79
2023/08/05 00:24:48;;;;;;;1.00;0.90;;;;;;;;;;5062784;28;20094;-79
2023/08/05 00:27:14;;;;;;;3.33;0.90;;;;;;;;;;5064390;28;20029;-78
2023/08/05 00:29:40;;;;;;;0.93;0.90;;;;;;;;;;5051294;28;20017;-77
2023/08/05 00:32:07;;;;;;;1.05;0.95;;;;;;;;;;5056128;28;20028;-78
2023/08/05 00:34:34;;;;;;;1.38;0.93;;;;;;;;;;5052124;28;20498;-78
2023/08/05 00:37:00;;;;;;;2.63;0.70;;;;;;;;;;5065500;28;20028;-78
2023/08/05 00:39:26;;;;;;;1.10;0.95;;;;;;;;;;5063234;28;20033;-78
2023/08/05 00:41:52;;;;;;;0.88;0.88;;;;;;;;;;5055136;28;20097;-78
2023/08/05 00:44:18;;;;;;;2.03;1.40;;;;;;;;;;5060170;28;20437;-78
2023/08/05 00:46:44;;;;;;;1.15;0.93;;;;;;;;;;5060805;28;20021;-78
2023/08/05 00:49:10;;;;;;;1.63;0.98;;;;;;;;;;5066201;28;20042;-77
2023/08/05 00:51:36;;;;;;;0.93;0.90;;;;;;;;;;5054686;28;20056;-78
2023/08/05 00:54:02;;;;;;;1.58;0.77;;;;;;;;;;5059726;28;20033;-79
2023/08/05 00:56:29;;;;;;;1.85;1.05;;;;;;;;;;5059726;28;20052;-79
2023/08/05 00:58:55;;;;;;;1.45;1.05;;;;;;;;;;5068837;28;20074;-78
2023/08/05 01:01:21;;;;;;;0.82;0.82;;;;;;;;;;5068724;28;20032;-78
2023/08/05 01:03:47;;;;;;;1.00;0.80;;;;;;;;;;5062957;28;20033;-78
2023/08/05 01:06:13;;;;;;;1.25;0.82;;;;;;;;;;5057920;28;20028;-79
2023/08/05 01:08:39;;;;;;;0.80;0.80;;;;;;;;;;5069614;28;20024;-79
2023/08/05 01:11:05;;;;;;;1.05;0.80;;;;;;;;;;5070511;28;20020;-78
2023/08/05 01:13:31;;;;;;;1.88;0.80;;;;;;;;;;5067500;28;20072;-78
2023/08/05 01:15:57;;;;;;;1.08;0.88;;;;;;;;;;5058555;28;20035;-78
2023/08/05 01:18:24;;;;;;;0.70;0.70;;;;;;;;;;5057837;28;20029;-78
2023/08/05 01:20:54;;;;;;;1.10;0.80;;;;;;;;;;5067472;28;20048;-78
2023/08/05 01:23:29;;;;;;;0.93;0.93;;;;;;;;;;5062031;28;20032;-78
2023/08/05 01:25:55;;;;;;;0.90;0.70;;;;;;;;;;5051710;28;20064;-78
2023/08/05 01:28:21;;;;;;;0.80;0.77;;;;;;;;;;5049916;28;20029;-79
2023/08/05 01:30:48;;;;;;;0.90;0.90;;;;;;;;;;5061729;28;20041;-79
2023/08/05 01:33:15;;;;;;;3.50;1.02;;;;;;;;;;5067722;28;20116;-78
2023/08/05 01:35:47;;;;;;;0.50;0.50;;;;;;;;;;5065052;28;20102;-78
2023/08/05 01:38:13;;;;;;;0.93;0.90;;;;;;;;;;5066043;28;20177;-78
2023/08/05 01:40:39;;;;;;;1.38;0.93;;;;;;;;;;5057545;28;20024;-78
2023/08/05 01:43:05;;;;;;;1.80;1.10;;;;;;;;;;5051472;28;20519;-78
2023/08/05 01:45:31;;;;;;;0.63;0.63;;;;;;;;;;5059586;28;20036;-78
2023/08/05 01:47:56;;;;;;;1.33;0.88;;;;;;;;;;5056782;28;20083;-78
2023/08/05 01:50:23;;;;;;;0.88;0.70;;;;;;;;;;5053133;28;20032;-78
2023/08/05 01:52:49;;;;;;;0.82;0.80;;;;;;;;;;5063185;28;20031;-78
2023/08/05 01:55:15;;;;;;;2.33;0.90;;;;;;;;;;5065467;28;20036;-78
2023/08/05 01:57:41;;;;;;;0.57;0.57;;;;;;;;;;5059622;28;20107;-78
2023/08/05 02:00:07;;;;;;;0.70;0.70;;;;;;;;;;5056030;28;20031;-78
2023/08/05 02:02:33;;;;;;;1.40;0.77;;;;;;;;;;5051619;28;20120;-78
2023/08/05 02:04:59;;;;;;;0.68;0.65;;;;;;;;;;5060055;28;20112;-78
2023/08/05 02:07:25;;;;;;;2.92;0.85;;;;;;;;;;5058187;28;20382;-78
2023/08/05 02:09:51;;;;;;;0.88;0.80;;;;;;;;;;5063150;28;20033;-78
2023/08/05 02:12:17;;;;;;;0.93;0.65;;;;;;;;;;5056172;28;20055;-78
2023/08/05 02:14:43;;;;;;;0.60;0.60;;;;;;;;;;5062439;28;20449;-78
2023/08/05 02:17:09;;;;;;;1.00;0.90;;;;;;;;;;5058493;28;20025;-78
2023/08/05 02:19:35;;;;;;;1.10;0.85;;;;;;;;;;5054098;28;20033;-78
2023/08/05 02:22:01;;;;;;;0.90;0.73;;;;;;;;;;5056474;28;20052;-78
2023/08/05 02:24:27;;;;;;;1.63;1.00;;;;;;;;;;5048692;28;20166;-78
2023/08/05 02:26:53;;;;;;;0.88;0.80;;;;;;;;;;5052840;28;20024;-78
2023/08/05 02:29:19;;;;;;;1.02;0.88;;;;;;;;;;5047724;28;20017;-78
2023/08/05 02:31:45;;;;;;;1.80;0.90;;;;;;;;;;5066225;28;20020;-78
2023/08/05 02:34:11;;;;;;;0.75;0.60;;;;;;;;;;5066901;28;20036;-78
2023/08/05 02:36:37;;;;;;;0.90;0.70;;;;;;;;;;5063720;28;20021;-78
2023/08/05 02:39:03;;;;;;;1.15;0.90;;;;;;;;;;5051260;28;20040;-78
2023/08/05 02:41:29;;;;;;;0.82;0.70;;;;;;;;;;5061364;28;20143;-78
2023/08/05 02:43:55;;;;;;;1.45;0.95;;;;;;;;;;5061046;28;20024;-78
2023/08/05 02:46:21;;;;;;;0.73;0.73;;;;;;;;;;5066206;28;20033;-78
2023/08/05 02:48:47;;;;;;;1.00;0.90;;;;;;;;;;5060658;28;20024;-78
2023/08/05 02:51:13;;;;;;;2.03;1.00;;;;;;;;;;5054475;28;20078;-78
2023/08/05 02:53:39;;;;;;;1.52;0.85;;;;;;;;;;5052730;28;20020;-79
2023/08/05 02:56:05;;;;;;;0.77;0.68;;;;;;;;;;5050292;28;20503;-79
2023/08/05 02:58:31;;;;;;;0.60;0.60;;;;;;;;;;5062348;28;20025;-79
2023/08/05 03:01:08;;;;;;;0.73;0.73;;;;;;;;;;5057778;28;21764;-79
2023/08/05 03:03:34;;;;;;;1.15;0.82;;;;;;;;;;5056681;28;20029;-78
2023/08/05 03:06:00;;;;;;;1.40;1.00;;;;;;;;;;5051749;28;20029;-78
2023/08/05 03:08:26;;;;;;;0.70;0.70;;;;;;;;;;5067767;28;20032;-78
2023/08/05 03:10:59;;;;;;;1.00;0.88;;;;;;;;;;5059334;28;20091;-79
2023/08/05 03:13:25;;;;;;;1.05;0.80;;;;;;;;;;5049300;28;20021;-78
2023/08/05 03:15:52;;;;;;;0.75;0.75;;;;;;;;;;5048508;28;20021;-78
2023/08/05 03:18:18;;;;;;;0.80;0.75;;;;;;;;;;5048023;28;20032;-78
2023/08/05 03:20:44;;;;;;;1.88;0.80;;;;;;;;;;5052662;28;20053;-78
2023/08/05 03:23:10;;;;;;;1.55;0.60;;;;;;;;;;5052145;28;20077;-78
2023/08/05 03:25:37;;;;;;;1.02;0.90;;;;;;;;;;5064034;28;20028;-78
2023/08/05 03:28:03;;;;;;;0.77;0.70;;;;;;;;;;5050306;28;20033;-78
2023/08/05 03:30:29;;;;;;;0.70;0.70;;;;;;;;;;5069383;28;20456;-79
2023/08/05 03:32:54;;;;;;;0.73;0.73;;;;;;;;;;5053839;28;20471;-78
2023/08/05 03:35:20;;;;;;;0.60;0.60;;;;;;;;;;5058504;28;20484;-78
2023/08/05 03:37:47;;;;;;;0.73;0.73;;;;;;;;;;5063290;28;20028;-78
2023/08/05 03:40:13;;;;;;;0.95;0.85;;;;;;;;;;5054904;28;20039;-79
2023/08/05 03:42:39;;;;;;;0.52;0.52;;;;;;;;;;5061396;28;20035;-78
2023/08/05 03:45:06;;;;;;;1.63;0.88;;;;;;;;;;5069443;28;20024;-79
2023/08/05 03:47:32;;;;;;;0.73;0.73;;;;;;;;;;5054290;28;20029;-79
2023/08/05 03:49:58;;;;;;;1.35;0.90;;;;;;;;;;5056160;28;20034;-79
2023/08/05 03:52:26;;;;;;;1.20;0.88;;;;;;;;;;5063982;28;20025;-79
2023/08/05 03:54:52;;;;;;;1.27;0.77;;;;;;;;;;5056777;28;20083;-79
2023/08/05 03:57:18;;;;;;;0.68;0.60;;;;;;;;;;5066799;28;20101;-79
2023/08/05 03:59:46;;;;;;;0.60;0.60;;;;;;;;;;5052948;28;20490;-78
2023/08/05 04:02:14;;;;;;;0.82;0.73;;;;;;;;;;5056279;28;20021;-77
2023/08/05 04:04:42;;;;;;;0.65;0.65;;;;;;;;;;5058867;28;20041;-78
2023/08/05 04:07:08;;;;;;;1.42;0.77;;;;;;;;;;5059980;28;20032;-78
2023/08/05 04:09:35;;;;;;;0.93;0.82;;;;;;;;;;5064276;28;20471;-79
2023/08/05 04:12:04;;;;;;;0.73;0.70;;;;;;;;;;5050716;28;20054;-78
2023/08/05 04:14:30;;;;;;;2.55;0.60;;;;;;;;;;5061202;28;20457;-78
2023/08/05 04:16:56;;;;;;;1.67;0.90;;;;;;;;;;5056956;28;20116;-79
2023/08/05 04:19:23;;;;;;;0.98;0.85;;;;;;;;;;5065778;28;20021;-79
2023/08/05 04:21:52;;;;;;;0.68;0.68;;;;;;;;;;5052217;28;20060;-78
2023/08/05 04:24:21;;;;;;;1.23;0.65;;;;;;;;;;5064973;28;20029;-78
2023/08/05 04:26:48;;;;;;;0.60;0.60;;;;;;;;;;5052767;28;20120;-78
2023/08/05 04:29:17;;;;;;;1.10;0.77;;;;;;;;;;5052720;28;20413;-78
2023/08/05 04:31:43;;;;;;;1.90;0.80;;;;;;;;;;5051960;28;20090;-78
2023/08/05 04:34:09;;;;;;;0.80;0.75;;;;;;;;;;5066272;28;20522;-78
2023/08/05 04:36:35;;;;;;;2.60;0.68;;;;;;;;;;5051889;28;20025;-78
2023/08/05 04:39:03;;;;;;;0.82;0.68;;;;;;;;;;5050769;28;20083;-78
2023/08/05 04:41:29;;;;;;;0.63;0.60;;;;;;;;;;5057441;28;20551;-79
2023/08/05 04:43:55;;;;;;;1.55;0.95;;;;;;;;;;5057102;28;20040;-79
2023/08/05 04:46:21;;;;;;;0.68;0.68;;;;;;;;;;5051553;28;20506;-79
2023/08/05 04:48:47;;;;;;;0.60;0.60;;;;;;;;;;5059769;28;20094;-78
2023/08/05 04:51:12;;;;;;;1.10;0.80;;;;;;;;;;5062190;28;20020;-79
2023/08/05 04:53:38;;;;;;;0.77;0.75;;;;;;;;;;5061954;28;20032;-79
2023/08/05 04:56:04;;;;;;;1.05;0.70;;;;;;;;;;5065376;28;20019;-79
2023/08/05 04:58:30;;;;;;;0.73;0.73;;;;;;;;;;5064609;28;20502;-78
2023/08/05 05:00:56;;;;;;;0.63;0.60;;;;;;;;;;5065270;28;20020;-79
2023/08/05 05:03:23;;;;;;;0.60;0.60;;;;;;;;;;5059523;28;20104;-79
2023/08/05 05:05:49;;;;;;;0.50;0.50;;;;;;;;;;5052763;28;20081;-79
2023/08/05 05:08:15;;;;;;;0.70;0.70;;;;;;;;;;5054920;28;20108;-80
2023/08/05 05:10:45;;;;;;;0.63;0.60;;;;;;;;;;5055775;28;20463;-79
2023/08/05 05:13:11;;;;;;;0.50;0.50;;;;;;;;;;5076502;28;20077;-79
2023/08/05 05:15:37;;;;;;;1.40;0.80;;;;;;;;;;5050328;28;20025;-79
2023/08/05 05:18:03;;;;;;;1.08;0.75;;;;;;;;;;5062463;28;20040;-79
2023/08/05 05:20:29;;;;;;;0.55;0.52;;;;;;;;;;5061942;28;20127;-79
2023/08/05 05:22:55;;;;;;;0.93;0.82;;;;;;;;;;5059486;28;20036;-76
2023/08/05 05:25:22;;;;;;;0.60;0.60;;;;;;;;;;5066676;28;20029;-80
2023/08/05 05:27:48;;;;;;;0.82;0.70;;;;;;;;;;5059953;28;20017;-79
2023/08/05 05:30:14;;;;;;;0.77;0.77;;;;;;;;;;5050263;28;20033;-79
2023/08/05 05:32:40;;;;;;;0.68;0.68;;;;;;;;;;5049961;28;20052;-79
2023/08/05 05:35:06;;;;;;;0.88;0.80;;;;;;;;;;5064035;28;20028;-81
2023/08/05 05:37:32;;;;;;;0.88;0.73;;;;;;;;;;5060297;28;20032;-80
2023/08/05 05:39:58;;;;;;;0.80;0.70;;;;;;;;;;5052359;28;20036;-80
2023/08/05 05:42:24;;;;;;;0.70;0.70;;;;;;;;;;5057250;28;20035;-81
2023/08/05 05:44:52;;;;;;;0.60;0.60;;;;;;;;;;5059706;28;20107;-81
2023/08/05 05:47:19;;;;;;;2.58;0.60;;;;;;;;;;5067500;28;20062;-80
2023/08/05 05:49:46;;;;;;;0.60;0.60;;;;;;;;;;5056199;28;20035;-81
2023/08/05 05:52:15;;;;;;;2.58;0.70;;;;;;;;;;5057324;28;20548;-81
2023/08/05 05:54:41;;;;;;;1.30;0.82;;;;;;;;;;5054575;28;20040;-78
2023/08/05 05:57:07;;;;;;;0.47;0.47;;;;;;;;;;5047880;28;20078;-78
2023/08/05 05:59:33;;;;;;;0.95;0.73;;;;;;;;;;5049516;28;20091;-79
2023/08/05 06:01:59;;;;;;;0.95;0.60;;;;;;;;;;5063963;28;20036;-79
2023/08/05 06:04:28;;;;;;;0.77;0.68;;;;;;;;;;5067423;28;20582;-79
2023/08/05 06:06:54;;;;;;;1.15;0.82;;;;;;;;;;5064251;28;20028;-79
2023/08/05 06:09:23;;;;;;;1.42;0.77;;;;;;;;;;5069291;28;20025;-78
2023/08/05 06:11:49;;;;;;;0.52;0.52;;;;;;;;;;5061862;28;20017;-78
2023/08/05 06:14:15;;;;;;;0.60;0.60;;;;;;;;;;5051043;28;20029;-78
2023/08/05 06:16:41;;;;;;;1.20;0.80;;;;;;;;;;5058011;28;20021;-75
2023/08/05 06:19:07;;;;;;;1.20;1.00;;;;;;;;;;5061638;28;20024;-78
2023/08/05 06:21:33;;;;;;;0.88;0.88;;;;;;;;;;5050519;28;20047;-80
2023/08/05 06:24:05;;;;;;;1.42;1.00;;;;;;;;;;5049763;28;20048;-80
2023/08/05 06:26:31;;;;;;;0.80;0.77;;;;;;;;;;5063317;28;20483;-79
2023/08/05 06:28:57;;;;;;;0.93;0.73;;;;;;;;;;5066075;28;20028;-80
2023/08/05 06:31:23;;;;;;;0.90;0.82;;;;;;;;;;5057726;28;20031;-81
2023/08/05 06:33:49;;;;;;;0.50;0.50;;;;;;;;;;5052843;28;20078;-81
2023/08/05 06:36:15;;;;;;;0.73;0.73;;;;;;;;;;5048721;28;20033;-84
2023/08/05 06:38:41;;;;;;;1.10;0.80;;;;;;;;;;5053976;28;20017;-83
2023/08/05 06:41:07;;;;;;;0.60;0.60;;;;;;;;;;5049228;28;20525;-83
2023/08/05 06:43:33;;;;;;;0.60;0.60;;;;;;;;;;5060554;28;20033;-83
2023/08/05 06:45:59;;;;;;;1.30;0.98;;;;;;;;;;5068097;28;20024;-80
2023/08/05 06:48:25;;;;;;;0.60;0.60;;;;;;;;;;5053704;28;20029;-80
2023/08/05 06:50:51;;;;;;;0.95;0.60;;;;;;;;;;5057006;28;20021;-82
2023/08/05 06:53:16;;;;;;;1.65;1.25;;;;;;;;;;5048432;28;20656;-81
2023/08/05 06:55:42;;;;;;;0.73;0.70;;;;;;;;;;5064700;28;20032;-86
2023/08/05 06:58:08;;;;;;;0.65;0.65;;;;;;;;;;5069326;28;20502;-85
2023/08/05 07:00:34;;;;;;;0.90;0.80;;;;;;;;;;5059169;28;20432;-87
2023/08/05 07:03:01;;;;;;;0.93;0.82;;;;;;;;;;5070188;28;20039;-88
2023/08/05 07:05:29;;;;;;;0.70;0.70;;;;;;;;;;5065768;28;20023;-87
2023/08/05 07:07:55;;;;;;;0.75;0.70;;;;;;;;;;5056372;28;20021;-84
2023/08/05 07:10:21;;;;;;;1.52;0.60;;;;;;;;;;5061226;28;20054;-87
2023/08/05 07:12:47;;;;;;;0.73;0.73;;;;;;;;;;5073214;28;20032;-85
2023/08/05 07:15:13;;;;;;;0.60;0.60;;;;;;;;;;5070750;28;20039;-85
2023/08/05 07:17:45;;;;;;;0.73;0.65;;;;;;;;;;5055878;28;20036;-83
2023/08/05 07:20:14;;;;;;;1.20;0.60;;;;;;;;;;5053585;28;20033;-82
2023/08/05 07:22:39;;;;;;;0.50;0.50;;;;;;;;;;5067592;28;20025;-84
2023/08/05 07:25:09;;;;;;;0.55;0.55;;;;;;;;;;5065527;28;20037;-85
2023/08/05 07:27:46;;;;;;;0.63;0.63;;;;;;;;;;5064649;28;20035;-83
2023/08/05 07:30:12;;;;;;;0.73;0.70;;;;;;;;;;5052717;28;20029;-82
2023/08/05 07:32:39;;;;;;;1.23;0.60;;;;;;;;;;5058209;28;20032;-83
2023/08/05 07:35:07;;;;;;;0.60;0.60;;;;;;;;;;5052693;28;20040;-83
2023/08/05 07:37:34;;;;;;;0.55;0.55;;;;;;;;;;5050827;28;20049;-84
2023/08/05 07:40:00;;;;;;;0.63;0.57;;;;;;;;;;5062417;28;20110;-84
2023/08/05 07:42:27;;;;;;;0.70;0.60;;;;;;;;;;5072154;28;20029;-85
2023/08/05 07:44:53;;;;;;;2.15;0.65;;;;;;;;;;5065638;28;20033;-83
2023/08/05 07:47:19;;;;;;;1.42;0.70;;;;;;;;;;5051513;28;20071;-83
2023/08/05 07:49:46;;;;;;;0.68;0.68;;;;;;;;;;5050822;28;20033;-85
2023/08/05 07:52:12;;;;;;;0.93;0.73;;;;;;;;;;5059692;28;20044;-86
2023/08/05 07:54:38;;;;;;;1.02;0.75;;;;;;;;;;5056163;28;20522;-84
2023/08/05 07:57:04;;;;;;;0.68;0.68;;;;;;;;;;5059186;28;20017;-89
2023/08/05 07:59:30;;;;;;;1.60;0.63;;;;;;;;;;5057310;28;20483;-83
2023/08/05 08:01:57;;;;;;;0.88;0.77;;;;;;;;;;5055320;28;20032;-82
2023/08/05 08:04:23;;;;;;;1.08;0.70;;;;;;;;;;5060369;28;20060;-85
2023/08/05 08:06:49;;;;;;;0.70;0.70;;;;;;;;;;5051658;28;20040;-82
2023/08/05 08:09:15;;;;;;;0.52;0.52;;;;;;;;;;5064631;28;20024;-82
2023/08/05 08:11:41;;;;;;;0.68;0.68;;;;;;;;;;5066750;28;20054;-84
2023/08/05 08:14:07;;;;;;;2.03;0.50;;;;;;;;;;5061033;28;20095;-86
2023/08/05 08:16:33;;;;;;;0.50;0.50;;;;;;;;;;5063657;28;20497;-85
2023/08/05 08:18:59;;;;;;;0.93;0.63;;;;;;;;;;5058652;28;20029;-83
2023/08/05 08:21:25;;;;;;;0.90;0.90;;;;;;;;;;5050304;28;20333;-86
2023/08/05 08:23:51;;;;;;;0.60;0.60;;;;;;;;;;5054525;28;20032;-87
2023/08/05 08:26:17;;;;;;;0.95;0.73;;;;;;;;;;5053303;28;20041;-90
2023/08/05 08:28:43;;;;;;;3.08;0.68;;;;;;;;;;5074180;28;20025;-93
2023/08/05 08:31:09;;;;;;;0.85;0.70;;;;;;;;;;5057005;28;20123;-82
2023/08/05 08:33:35;;;;;;;6.07;1.00;;;;;;;;;;5062901;28;20032;-86
2023/08/05 08:36:01;;;;;;;88.00;8.23;;;;;;;;;;5056745;28;20082;-82
2023/08/05 08:38:27;;;;;;;17.15;4.00;;;;;;;;;;5052295;28;20035;-83
2023/08/05 08:40:57;;;;;;;2.25;1.58;;;;;;;;;;5051573;28;20029;-83
2023/08/05 08:43:23;;;;;;;13.88;2.22;;;;;;;;;;5067588;28;20441;-82
2023/08/05 08:45:53;;;;;;;19.25;2.42;;;;;;;;;;5057213;28;20032;-82
2023/08/05 08:48:19;;;;;;;3.95;1.70;;;;;;;;;;5055594;28;20379;-81
2023/08/05 08:50:46;;;;;;;2.42;1.25;;;;;;;;;;5065555;28;20032;-81
2023/08/05 08:53:15;;;;;;;3.55;1.50;;;;;;;;;;5052561;28;20031;-78
2023/08/05 08:55:42;;;;;;;2.30;1.45;;;;;;;;;;5058163;28;20037;-78
2023/08/05 08:58:08;;;;;;;2.63;0.70;;;;;;;;;;5060302;28;20029;-80
2023/08/05 09:00:34;;;;;;;2.03;1.25;;;;;;;;;;5057071;28;20055;-80
2023/08/05 09:03:01;;;;;;;1.38;1.27;;;;;;;;;;5061381;28;20487;-82
2023/08/05 09:05:33;;;;;;;3.05;1.45;;;;;;;;;;5062323;28;20547;-79
2023/08/05 09:08:00;;;;;;;3.97;1.00;;;;;;;;;;5058636;28;20108;-77
2023/08/05 09:10:26;;;;;;;9.95;2.35;;;;;;;;;;5067209;28;20028;-81
2023/08/05 09:12:53;;;;;;;4.72;1.20;;;;;;;;;;5059442;28;20032;-81
2023/08/05 09:15:21;;;;;;;1.45;0.75;;;;;;;;;;5065958;28;20038;-82
2023/08/05 09:17:47;;;;;;;4.13;1.25;;;;;;;;;;5053629;28;20029;-85
2023/08/05 09:20:16;;;;;;;1.80;0.95;;;;;;;;;;5059195;28;20040;-80
2023/08/05 09:22:52;;;;;;;6.60;1.27;;;;;;;;;;5050181;28;20029;-81
2023/08/05 09:25:18;;;;;;;4.40;1.00;;;;;;;;;;5050224;28;20469;-82
2023/08/05 09:27:46;;;;;;;1.00;0.90;;;;;;;;;;5058224;28;20017;-85
2023/08/05 09:30:16;;;;;;;31.10;1.83;;;;;;;;;;5056912;28;20115;-85
2023/08/05 09:32:43;;;;;;;2.13;1.45;;;;;;;;;;5063399;28;20033;-80
2023/08/05 09:35:10;;;;;;;25.30;3.47;;;;;;;;;;5048844;28;20079;-81
2023/08/05 09:37:38;;;;;;;9.63;1.45;;;;;;;;;;5060341;28;20037;-83
2023/08/05 09:40:18;;;;;;;5.47;1.73;;;;;;;;;;5063971;28;20024;-83
2023/08/05 09:42:50;;;;;;;5.03;1.95;;;;;;;;;;5070307;28;20029;-80
2023/08/05 09:45:17;;;;;;;6.78;2.40;;;;;;;;;;5049164;28;20075;-79
2023/08/05 09:47:43;;;;;;;1.85;1.10;;;;;;;;;;5050475;28;20136;-86
2023/08/05 09:50:13;;;;;;;2.63;0.90;;;;;;;;;;5053132;28;20079;-89
2023/08/05 09:52:39;;;;;;;1.88;1.20;;;;;;;;;;5052643;28;20047;-85
2023/08/05 09:55:12;;;;;;;1.23;0.80;;;;;;;;;;5053428;28;20403;-85
2023/08/05 09:57:38;;;;;;;3.65;1.60;;;;;;;;;;5048244;28;20025;-84
2023/08/05 10:00:08;;;;;;;3.00;1.10;;;;;;;;;;5051770;28;20061;-84
2023/08/05 10:02:34;;;;;;;0.90;0.88;;;;;;;;;;5051218;28;20033;-85
2023/08/05 10:05:02;;;;;;;2.30;1.00;;;;;;;;;;5059225;28;20067;-86
2023/08/05 10:07:28;;;;;;;2.33;1.00;;;;;;;;;;5050616;28;20020;-86
2023/08/05 10:09:54;;;;;;;1.20;0.77;;;;;;;;;;5061989;28;20028;-87
2023/08/05 10:12:22;;;;;;;1.70;0.90;;;;;;;;;;5062628;28;20446;-78
2023/08/05 10:14:49;;;;;;;1.83;1.27;;;;;;;;;;5051509;28;20033;-83
2023/08/05 10:17:15;;;;;;;2.72;0.90;;;;;;;;;;5059801;28;20051;-81
2023/08/05 10:19:41;;;;;;;1.17;0.88;;;;;;;;;;5061656;28;20034;-81
2023/08/05 10:22:10;;;;;;;1.65;0.98;;;;;;;;;;5053263;28;20499;-82
2023/08/05 10:24:56;;;;;;;3.45;0.82;;;;;;;;;;5052274;28;20071;-82
2023/08/05 10:27:43;;;;;;;0.90;0.90;;;;;;;;;;5047568;28;20029;-82
2023/08/05 10:30:10;;;;;;;1.58;1.35;;;;;;;;;;5057719;28;20112;-82
2023/08/05 10:32:49;;;;;;;2.75;1.02;;;;;;;;;;5068510;28;20123;-82
2023/08/05 10:35:24;;;;;;;1.75;0.80;;;;;;;;;;5058907;28;20036;-82
2023/08/05 10:37:51;;;;;;;1.83;1.15;;;;;;;;;;5048004;28;20067;-82
2023/08/05 10:40:37;;;;;;;0.95;0.85;;;;;;;;;;5048695;28;20033;-82
2023/08/05 10:43:03;;;;;;;0.70;0.70;;;;;;;;;;5057325;28;20025;-82
2023/08/05 10:45:29;;;;;;;2.97;0.95;;;;;;;;;;5060544;28;20028;-82
2023/08/05 10:47:55;;;;;;;1.20;1.00;;;;;;;;;;5066391;28;20093;-82
2023/08/05 10:50:21;;;;;;;0.80;0.80;;;;;;;;;;5068714;28;20024;-82
2023/08/05 10:52:47;;;;;;;1.10;1.00;;;;;;;;;;5068699;28;20111;-82
2023/08/05 10:55:13;;;;;;;1.30;0.93;;;;;;;;;;5066392;28;20046;-82
2023/08/05 10:57:39;;;;;;;1.33;1.05;;;;;;;;;;5049243;28;20143;-82
2023/08/05 11:00:07;;;;;;;1.73;1.20;;;;;;;;;;5048736;28;20029;-82
2023/08/05 11:02:33;;;;;;;1.58;0.80;;;;;;;;;;5048468;28;20025;-82
2023/08/05 11:05:09;;;;;;;0.85;0.85;;;;;;;;;;5048346;28;20108;-82
2023/08/05 11:07:38;;;;;;;1.33;0.80;;;;;;;;;;5048422;28;20021;-82
2023/08/05 11:10:05;;;;;;;0.80;0.75;;;;;;;;;;5052378;28;20050;-82
2023/08/05 11:12:31;;;;;;;0.93;0.93;;;;;;;;;;5068472;28;20108;-82
2023/08/05 11:14:57;;;;;;;2.88;0.93;;;;;;;;;;5068205;28;20029;-82
2023/08/05 11:17:23;;;;;;;1.50;0.93;;;;;;;;;;5061575;28;20033;-82
2023/08/05 11:19:52;;;;;;;1.65;0.73;;;;;;;;;;5067053;28;20036;-82
2023/08/05 11:22:25;;;;;;;0.75;0.75;;;;;;;;;;5063870;28;20074;-82
2023/08/05 11:25:01;;;;;;;3.13;1.00;;;;;;;;;;5064993;28;20416;-82
2023/08/05 11:27:34;;;;;;;1.35;0.93;;;;;;;;;;5068394;28;20352;-83
2023/08/05 11:30:12;;;;;;;0.60;0.60;;;;;;;;;;5068488;28;20025;-83
2023/08/05 11:33:08;;;;;;;1.17;1.02;;;;;;;;;;5065947;28;20032;-82
2023/08/05 11:35:42;;;;;;;2.03;1.02;;;;;;;;;;5030977;28;20035;-83
2023/08/05 11:38:09;;;;;;;2.70;1.05;;;;;;;;;;5048457;28;20033;-82
2023/08/05 11:40:39;;;;;;;1.48;1.08;;;;;;;;;;5047787;28;20037;-82
2023/08/05 11:43:06;;;;;;;1.35;1.10;;;;;;;;;;5048154;28;20154;-82
2023/08/05 11:45:32;;;;;;;2.55;1.20;;;;;;;;;;5048687;28;20037;-82
2023/08/05 11:47:58;;;;;;;1.05;0.93;;;;;;;;;;5047608;28;20100;-82
2023/08/05 11:50:33;;;;;;;1.98;0.98;;;;;;;;;;5051220;28;20617;-82
2023/08/05 11:53:03;;;;;;;1.35;0.85;;;;;;;;;;5052029;28;20045;-82
2023/08/05 11:55:33;;;;;;;1.30;1.20;;;;;;;;;;5051813;28;20441;-82
2023/08/05 11:58:05;;;;;;;4.00;1.23;;;;;;;;;;5051501;28;20075;-82
2023/08/05 12:00:31;;;;;;;2.63;1.15;;;;;;;;;;5051631;28;20499;-82
2023/08/05 12:02:57;;;;;;;2.53;0.98;;;;;;;;;;5049895;28;20029;-82
2023/08/05 12:05:24;;;;;;;1.17;0.93;;;;;;;;;;5051411;28;20029;-83
2023/08/05 12:07:50;;;;;;;5.35;1.45;;;;;;;;;;5055961;28;20388;-80
2023/08/05 12:10:17;;;;;;;1.20;1.02;;;;;;;;;;5073809;28;20157;-85
2023/08/05 12:12:44;;;;;;;3.72;1.02;;;;;;;;;;5066262;28;20031;-86
2023/08/05 12:15:11;;;;;;;6.07;1.48;;;;;;;;;;5058316;28;20040;-82
2023/08/05 12:17:37;;;;;;;10.00;1.25;;;;;;;;;;5070426;28;20489;-84
2023/08/05 12:20:07;;;;;;;4.63;1.55;;;;;;;;;;5073666;28;20037;-76
2023/08/05 12:22:32;;;;;;;4.70;1.20;;;;;;;;;;5069070;28;20056;-78
2023/08/05 12:24:58;;;;;;;7.80;1.65;;;;;;;;;;5064866;28;20043;-78
2023/08/05 12:27:27;;;;;;;2.40;1.30;;;;;;;;;;5063963;28;20040;-79
2023/08/05 12:29:53;;;;;;;3.70;1.50;;;;;;;;;;5060832;28;20024;-81
2023/08/05 12:32:19;;;;;;;5.95;1.35;;;;;;;;;;5055329;28;20395;-84
2023/08/05 12:34:45;;;;;;;1.40;1.30;;;;;;;;;;5070939;28;20032;-84
2023/08/05 12:37:11;;;;;;;2.70;1.40;;;;;;;;;;5066942;28;20031;-85
2023/08/05 12:39:37;;;;;;;2.00;1.15;;;;;;;;;;5053515;28;20480;-82
2023/08/05 12:42:03;;;;;;;2.63;1.40;;;;;;;;;;5058861;28;20041;-85
2023/08/05 12:44:29;;;;;;;1.77;1.13;;;;;;;;;;5075766;28;20032;-88
2023/08/05 12:46:55;;;;;;;1.95;1.30;;;;;;;;;;5063747;28;20039;-87
2023/08/05 12:49:21;;;;;;;1.25;0.98;;;;;;;;;;5074071;28;20050;-89
2023/08/05 12:51:47;;;;;;;1.38;0.98;;;;;;;;;;5061083;28;20025;-77
2023/08/05 12:54:13;;;;;;;0.93;0.80;;;;;;;;;;5062487;28;20079;-80
2023/08/05 12:56:39;;;;;;;2.75;1.33;;;;;;;;;;5051801;28;20029;-87
2023/08/05 12:59:05;;;;;;;2.22;0.93;;;;;;;;;;5061519;28;20043;-78
2023/08/05 13:01:31;;;;;;;2.33;1.25;;;;;;;;;;5066897;28;20029;-83
2023/08/05 13:03:57;;;;;;;1.60;1.00;;;;;;;;;;5055040;28;20033;-89
2023/08/05 13:06:23;;;;;;;2.10;1.25;;;;;;;;;;5076373;28;20036;-85
2023/08/05 13:08:49;;;;;;;1.25;0.90;;;;;;;;;;5066828;28;20027;-85
2023/08/05 13:11:15;;;;;;;1.20;1.10;;;;;;;;;;5057324;28;20040;-85
2023/08/05 13:13:41;;;;;;;1.60;1.10;;;;;;;;;;5052260;28;20021;-86
2023/08/05 13:16:07;;;;;;;1.63;1.23;;;;;;;;;;5054674;28;20522;-84
2023/08/05 13:18:34;;;;;;;2.17;0.98;;;;;;;;;;5061296;28;20042;-83
2023/08/05 13:21:00;;;;;;;1.95;0.90;;;;;;;;;;5063896;28;20091;-80
2023/08/05 13:23:26;;;;;;;1.60;1.30;;;;;;;;;;5066303;28;20463;-79
2023/08/05 13:25:52;;;;;;;2.42;1.05;;;;;;;;;;5078132;28;20101;-95
2023/08/05 13:28:18;;;;;;;1.63;0.85;;;;;;;;;;5073000;28;20052;-86
2023/08/05 13:30:44;;;;;;;1.45;1.02;;;;;;;;;;5060484;28;20033;-93
2023/08/05 13:33:10;;;;;;;1.70;1.10;;;;;;;;;;5063500;28;20044;-82
2023/08/05 13:35:36;;;;;;;1.52;0.90;;;;;;;;;;5067138;28;20395;-88
2023/08/05 13:38:02;;;;;;;1.73;0.90;;;;;;;;;;5059666;28;20069;-91
2023/08/05 13:40:28;;;;;;;2.45;1.42;;;;;;;;;;5067819;28;20035;-94
2023/08/05 13:42:54;;;;;;;1.75;1.33;;;;;;;;;;5059549;28;20033;-85
2023/08/05 13:45:20;;;;;;;2.40;1.50;;;;;;;;;;5057291;28;20032;-82
2023/08/05 13:47:46;;;;;;;2.28;1.60;;;;;;;;;;5056645;28;20013;-87
2023/08/05 13:50:13;;;;;;;3.47;1.80;;;;;;;;;;5062684;28;20024;-82
2023/08/05 13:52:39;;;;;;;2.35;1.80;;;;;;;;;;5068314;28;20046;-83
2023/08/05 13:55:05;;;;;;;2.35;1.90;;;;;;;;;;5068720;28;20067;-83
2023/08/05 13:57:31;;;;;;;7.65;4.07;;;;;;;;;;5052335;28;20040;-78
2023/08/05 13:59:58;;;;;;;24.00;10.45;;;;;;;;;;5066087;28;20033;-79
2023/08/05 14:02:24;;;;;;;94.88;46.70;;;;;;;;;;5059125;28;20029;-82
2023/08/05 14:04:50;;;;;;;66.80;28.25;;;;;;;;;;5057969;28;20097;-80
2023/08/05 14:07:16;;;;;;;48.50;24.45;;;;;;;;;;5059092;28;20020;-81
2023/08/05 14:09:41;;;;;;;45.28;22.88;;;;;;;;;;5067164;28;20016;-81
2023/08/05 14:12:08;;;;;;;56.80;28.05;;;;;;;;;;5063730;28;20556;-81
2023/08/05 14:14:34;;;;;;;62.00;30.27;;;;;;;;;;5065109;28;20040;-80
2023/08/05 14:16:59;;;;;;;52.85;26.13;;;;;;;;;;5068275;28;20041;-81
2023/08/05 14:19:25;;;;;;;30.98;16.00;;;;;;;;;;5064138;28;20033;-80
2023/08/05 14:21:51;;;;;;;35.80;17.38;;;;;;;;;;5053302;28;20063;-81
2023/08/05 14:24:17;;;;;;;18.83;9.75;;;;;;;;;;5058335;28;20025;-80
2023/08/05 14:26:43;;;;;;;22.17;10.48;;;;;;;;;;5061155;28;20025;-80
2023/08/05 14:29:09;;;;;;;17.98;9.77;;;;;;;;;;5059293;28;20028;-80
2023/08/05 14:31:36;;;;;;;11.55;6.38;;;;;;;;;;5050767;28;20029;-81
2023/08/05 14:34:02;;;;;;;12.38;6.28;;;;;;;;;;5058163;28;20025;-80
2023/08/05 14:36:28;;;;;;;14.88;5.38;;;;;;;;;;5061822;28;20075;-77
2023/08/05 14:38:53;;;;;;;8.57;3.90;;;;;;;;;;5053949;28;20021;-80